createdAt,value
2019-02-06T00:01:08.366Z,3.60
2019-02-06T00:06:13.231Z,3.45
2019-02-06T00:11:22.764Z,3.45
2019-02-06T00:16:27.045Z,3.47
2019-02-06T00:21:31.994Z,3.35
2019-02-06T00:26:36.663Z,3.30
2019-02-06T00:31:38.698Z,3.40
2019-02-06T00:36:40.884Z,3.42
2019-02-06T00:41:47.929Z,3.24
2019-02-06T00:46:50.361Z,3.26
2019-02-06T00:51:52.380Z,3.26
2019-02-06T00:56:54.563Z,3.13
2019-02-06T01:01:56.683Z,3.14
2019-02-06T01:06:58.731Z,3.12
2019-02-06T01:12:00.759Z,3.15
2019-02-06T01:17:07.999Z,3.17
2019-02-06T01:22:10.129Z,3.21
2019-02-06T01:27:12.153Z,3.07
2019-02-06T01:32:14.162Z,3.16
2019-02-06T01:37:16.184Z,3.09
2019-02-06T01:42:18.270Z,3.17
2019-02-06T01:47:20.583Z,3.15
2019-02-06T01:52:25.136Z,3.25
2019-02-06T01:57:27.474Z,3.21
2019-02-06T02:02:29.848Z,3.31
2019-02-06T02:07:31.850Z,3.41
2019-02-06T02:12:33.855Z,3.36
2019-02-06T02:17:35.850Z,3.37
2019-02-06T02:22:39.963Z,3.33
2019-02-06T02:27:41.998Z,3.33
2019-02-06T02:32:44.064Z,3.34
2019-02-06T02:37:46.148Z,3.46
2019-02-06T02:42:48.155Z,3.51
2019-02-06T02:47:50.171Z,3.60
2019-02-06T02:52:53.202Z,3.94
2019-02-06T02:57:55.273Z,3.93
2019-02-06T03:03:05.657Z,3.94
2019-02-06T03:08:07.687Z,4.16
2019-02-06T03:13:12.457Z,3.98
2019-02-06T03:18:15.221Z,4.27
2019-02-06T03:23:17.235Z,4.16
2019-02-06T03:28:19.575Z,4.26
2019-02-06T03:33:21.929Z,4.31
2019-02-06T03:38:26.256Z,4.23
2019-02-06T03:43:30.315Z,4.28
2019-02-06T03:48:32.528Z,4.11
2019-02-06T03:53:35.869Z,3.91
2019-02-06T03:58:37.877Z,4.08
2019-02-06T04:03:42.291Z,4.00
2019-02-06T04:08:46.417Z,3.93
2019-02-06T04:13:48.532Z,4.08
2019-02-06T04:18:50.567Z,3.87
2019-02-06T04:23:52.625Z,3.87
2019-02-06T04:28:54.646Z,4.14
2019-02-06T04:33:57.203Z,4.08
2019-02-06T04:38:59.263Z,4.00
2019-02-06T04:44:04.354Z,4.31
2019-02-06T04:49:06.412Z,4.36
2019-02-06T04:54:11.072Z,4.30
2019-02-06T04:59:13.617Z,4.32
2019-02-06T05:04:15.878Z,4.07
2019-02-06T05:09:17.929Z,4.07
2019-02-06T05:14:20.100Z,4.25
2019-02-06T05:19:24.413Z,4.06
2019-02-06T05:24:26.558Z,4.14
2019-02-06T05:29:28.545Z,3.97
2019-02-06T05:34:30.794Z,4.26
2019-02-06T05:39:33.218Z,4.24
2019-02-06T05:44:37.164Z,4.09
2019-02-06T05:49:39.172Z,4.19
2019-02-06T05:54:41.206Z,4.03
2019-02-06T05:59:48.204Z,4.15
2019-02-06T06:04:51.798Z,4.16
2019-02-06T06:09:56.939Z,4.01
2019-02-06T06:14:59.263Z,4.26
2019-02-06T06:20:01.859Z,4.23
2019-02-06T06:25:05.477Z,4.02
2019-02-06T06:30:09.712Z,3.95
2019-02-06T06:35:11.926Z,3.77
2019-02-06T06:40:16.565Z,4.00
2019-02-06T06:45:22.937Z,3.86
2019-02-06T06:50:24.952Z,3.97
2019-02-06T06:55:30.023Z,3.95
2019-02-06T07:00:32.380Z,3.90
2019-02-06T07:05:34.764Z,3.94
2019-02-06T07:10:37.372Z,3.93
2019-02-06T07:15:46.319Z,3.99
2019-02-06T07:20:48.347Z,3.86
2019-02-06T07:25:50.420Z,4.06
2019-02-06T07:30:52.747Z,3.98
2019-02-06T07:35:55.313Z,3.96
2019-02-06T07:41:03.220Z,3.98
2019-02-06T07:46:05.319Z,3.81
2019-02-06T07:51:07.335Z,3.98
2019-02-06T07:56:09.547Z,4.05
2019-02-06T08:01:11.749Z,4.14
2019-02-06T08:06:13.891Z,4.08
2019-02-06T08:11:15.939Z,3.86
2019-02-06T08:16:20.860Z,3.94
2019-02-06T08:21:24.433Z,3.79
2019-02-06T08:26:27.926Z,3.92
2019-02-06T08:31:29.976Z,3.95
2019-02-06T08:36:32.419Z,4.09
2019-02-06T08:41:34.815Z,4.22
2019-02-06T08:46:37.059Z,4.12
2019-02-06T08:51:39.086Z,4.03
2019-02-06T08:56:41.142Z,4.22
2019-02-06T09:01:43.370Z,4.22
2019-02-06T09:06:45.667Z,4.14
2019-02-06T09:11:47.809Z,4.39
2019-02-06T09:16:50.110Z,4.32
2019-02-06T09:21:52.378Z,4.47
2019-02-06T09:26:54.755Z,4.47
2019-02-06T09:31:59.350Z,4.49
2019-02-06T09:37:00.888Z,4.44
2019-02-06T09:42:05.709Z,4.99
2019-02-06T09:47:08.056Z,4.99
2019-02-06T09:52:10.085Z,4.90
2019-02-06T09:57:13.865Z,4.96
2019-02-06T10:02:16.015Z,4.88
2019-02-06T10:07:18.068Z,4.95
2019-02-06T10:12:20.099Z,5.11
2019-02-06T10:17:22.176Z,5.23
2019-02-06T10:22:24.315Z,5.22
2019-02-06T10:27:26.951Z,5.19
2019-02-06T10:32:29.032Z,5.13
2019-02-06T10:37:33.590Z,5.33
2019-02-06T10:42:37.678Z,5.29
2019-02-06T10:47:41.355Z,5.30
2019-02-06T10:52:43.436Z,5.41
2019-02-06T10:57:50.422Z,5.41
2019-02-06T11:02:52.667Z,5.55
2019-02-06T11:07:55.938Z,5.60
2019-02-06T11:12:58.376Z,5.57
2019-02-06T11:18:00.398Z,5.64
2019-02-06T11:23:02.755Z,5.90
2019-02-06T11:28:08.178Z,5.67
2019-02-06T11:33:10.270Z,5.68
2019-02-06T11:38:12.372Z,5.74
2019-02-06T11:43:14.780Z,5.93
2019-02-06T11:48:16.856Z,6.08
2019-02-06T11:53:27.011Z,5.95
2019-02-06T11:58:29.188Z,5.99
2019-02-06T12:03:33.092Z,6.29
2019-02-06T12:08:35.126Z,6.31
2019-02-06T12:13:37.313Z,6.17
2019-02-06T12:18:39.366Z,6.35
2019-02-06T12:23:47.693Z,6.13
2019-02-06T12:28:51.739Z,6.17
2019-02-06T12:33:53.776Z,6.11
2019-02-06T12:38:55.798Z,6.18
2019-02-06T12:43:58.178Z,6.19
2019-02-06T12:49:00.203Z,6.30
2019-02-06T12:54:05.123Z,6.37
2019-02-06T12:59:09.852Z,6.47
2019-02-06T13:04:11.882Z,6.33
2019-02-06T13:09:15.008Z,6.21
2019-02-06T13:14:17.386Z,6.16
2019-02-06T13:19:21.785Z,6.15
2019-02-06T13:24:24.328Z,6.33
2019-02-06T13:29:26.384Z,6.43
2019-02-06T13:34:33.603Z,6.38
2019-02-06T13:39:35.640Z,6.47
2019-02-06T13:44:41.604Z,6.51
2019-02-06T13:49:47.049Z,6.49
2019-02-06T13:54:49.508Z,6.49
2019-02-06T13:59:51.497Z,6.57
2019-02-06T14:04:55.617Z,6.39
2019-02-06T14:09:57.631Z,6.41
2019-02-06T14:15:01.580Z,6.32
2019-02-06T14:20:05.929Z,6.37
2019-02-06T14:26:22.199Z,6.35
2019-02-06T14:32:04.385Z,6.34
2019-02-06T14:37:43.247Z,6.49
2019-02-06T14:43:06.849Z,6.62
2019-02-06T14:48:20.872Z,6.58
2019-02-06T14:54:08.991Z,6.56
2019-02-06T14:59:55.040Z,6.48
2019-02-06T15:05:36.263Z,6.51
2019-02-06T15:11:00.373Z,6.46
2019-02-06T15:16:47.513Z,6.57
2019-02-06T15:22:26.005Z,6.51
2019-02-06T15:28:12.570Z,6.46
2019-02-06T15:33:47.383Z,6.49
2019-02-06T15:39:40.638Z,6.57
2019-02-06T15:45:14.595Z,6.53
2019-02-06T15:50:36.624Z,6.51
2019-02-06T15:56:15.395Z,6.63
2019-02-06T16:01:39.823Z,6.60
2019-02-06T16:07:02.874Z,6.49
2019-02-06T16:12:43.288Z,6.45
2019-02-06T16:18:30.640Z,6.54
2019-02-06T16:24:26.821Z,6.51
2019-02-06T16:30:19.975Z,6.53
2019-02-06T16:36:18.653Z,6.51
2019-02-06T16:41:37.107Z,6.51
2019-02-06T16:47:23.983Z,6.37
2019-02-06T16:53:13.910Z,6.41
2019-02-06T16:58:55.070Z,6.45
2019-02-06T17:04:27.176Z,6.45
2019-02-06T17:09:57.068Z,6.50
2019-02-06T17:15:33.256Z,6.45
2019-02-06T17:21:15.456Z,6.51
2019-02-06T17:26:59.400Z,6.48
2019-02-06T17:32:11.641Z,6.50
2019-02-06T17:37:36.872Z,6.56
2019-02-06T17:43:01.262Z,6.65
2019-02-06T17:48:32.833Z,6.59
2019-02-06T17:54:00.051Z,6.55
2019-02-06T17:59:04.349Z,6.55
2019-02-06T18:04:14.184Z,6.59
2019-02-06T18:09:17.396Z,6.60
2019-02-06T18:14:22.804Z,6.66
2019-02-06T18:19:35.381Z,6.63
2019-02-06T18:24:37.575Z,6.70
2019-02-06T18:29:41.653Z,6.68
2019-02-06T18:34:43.666Z,6.67
2019-02-06T18:39:45.646Z,6.66
2019-02-06T18:44:49.913Z,6.72
2019-02-06T18:49:51.945Z,6.73
2019-02-06T18:54:54.023Z,6.81
2019-02-06T18:59:58.346Z,6.71
2019-02-06T19:05:00.484Z,6.75
2019-02-06T19:10:05.040Z,6.78
2019-02-06T19:15:10.465Z,6.81
2019-02-06T19:20:12.902Z,6.67
2019-02-06T19:25:16.998Z,6.81
2019-02-06T19:30:27.904Z,6.77
2019-02-06T19:35:30.283Z,6.82
2019-02-06T19:40:37.373Z,6.87
2019-02-06T19:45:39.668Z,6.86
2019-02-06T19:50:46.209Z,6.92
2019-02-06T19:55:48.392Z,6.88
2019-02-06T20:00:50.495Z,6.87
2019-02-06T20:05:52.947Z,6.91
2019-02-06T20:10:55.310Z,6.88
2019-02-06T20:15:57.461Z,6.99
2019-02-06T20:20:59.780Z,6.91
2019-02-06T20:26:04.637Z,6.93
2019-02-06T20:31:06.636Z,6.96
2019-02-06T20:36:08.750Z,6.97
2019-02-06T20:41:10.808Z,7.04
2019-02-06T20:46:13.237Z,6.99
2019-02-06T20:51:15.263Z,7.11
2019-02-06T20:56:18.016Z,7.12
2019-02-06T21:01:23.421Z,7.02
2019-02-06T21:06:28.427Z,7.03
2019-02-06T21:11:30.437Z,7.12
2019-02-06T21:16:32.503Z,6.99
2019-02-06T21:21:34.607Z,7.08
2019-02-06T21:26:36.795Z,7.10
2019-02-06T21:31:41.776Z,7.16
2019-02-06T21:36:46.564Z,7.03
2019-02-06T21:41:48.639Z,7.14
2019-02-06T21:46:54.079Z,7.10
2019-02-06T21:51:59.702Z,7.13
2019-02-06T21:57:01.766Z,7.08
2019-02-06T22:02:03.790Z,7.11
2019-02-06T22:07:08.975Z,7.12
2019-02-06T22:12:10.999Z,7.15
2019-02-06T22:17:27.058Z,7.03
2019-02-06T22:22:29.398Z,7.04
2019-02-06T22:27:34.269Z,7.14
2019-02-06T22:32:38.875Z,7.11
2019-02-06T22:37:48.610Z,7.05
2019-02-06T22:42:54.547Z,7.08
2019-02-06T22:47:56.607Z,7.01
2019-02-06T22:52:58.723Z,7.04
2019-02-06T22:58:02.037Z,7.06
2019-02-06T23:03:04.374Z,7.05
2019-02-06T23:08:06.403Z,7.09
2019-02-06T23:13:08.634Z,7.17
2019-02-06T23:18:11.905Z,7.12
2019-02-06T23:23:14.149Z,7.10
2019-02-06T23:28:16.522Z,7.06
2019-02-06T23:33:21.481Z,7.22
2019-02-06T23:38:28.489Z,7.17
2019-02-06T23:43:32.628Z,7.14
2019-02-06T23:48:34.650Z,7.09
2019-02-06T23:53:36.689Z,7.04
2019-02-06T23:58:39.028Z,7.07
